Time,TemperatureF,DewpointF,PressureIn,WindDirection,WindDirectionDegrees,WindSpeedMPH,WindSpeedGustMPH,Humidity,HourlyPrecipIn,Conditions,Clouds,dailyrainin,SolarRadiationWatts/m^2,SoftwareType,DateUTC
2013-01-15 00:00:00,38.0,14.0,-100.00,SE,136,1.0,2.0,36,-99.99,,,-99.99,-0.200000,,2013-01-15 08:00:00,
2013-01-15 00:53:00,38.0,14.0,-100.00,SE,136,1.0,2.0,36,-99.99,,,-99.99,-0.200000,,2013-01-15 08:53:00,
2013-01-15 01:00:00,38.0,11.0,-100.00,WSW,246,1.0,3.0,33,-99.99,,,-99.99,-0.200000,,2013-01-15 09:00:00,
2013-01-15 01:52:00,38.0,11.0,-100.00,WSW,246,1.0,3.0,33,-99.99,,,-99.99,-0.200000,,2013-01-15 09:52:00,
2013-01-15 02:00:00,39.0,13.0,-100.00,North,2,1.0,3.0,34,-99.99,,,0.00,-0.200000,,2013-01-15 10:00:00,
2013-01-15 02:52:00,39.0,13.0,-100.00,North,2,1.0,3.0,34,-99.99,,,0.00,-0.200000,,2013-01-15 10:52:00,
2013-01-15 03:00:00,43.0,16.0,-100.00,SSW,192,3.0,5.0,33,-99.99,,,0.00,-0.200000,,2013-01-15 11:00:00,
2013-01-15 03:53:00,43.0,16.0,-100.00,SSW,192,3.0,5.0,33,-99.99,,,0.00,-0.200000,,2013-01-15 11:53:00,
2013-01-15 04:00:00,44.0,12.0,-100.00,SW,228,4.0,6.0,27,-99.99,,,0.00,-0.200000,,2013-01-15 12:00:00,
2013-01-15 04:53:00,44.0,12.0,-100.00,SW,228,4.0,6.0,27,-99.99,,,0.00,-0.200000,,2013-01-15 12:53:00,
2013-01-15 05:00:00,44.0,13.0,-100.00,SSW,204,4.0,6.0,28,-99.99,,,0.00,-0.200000,,2013-01-15 13:00:00,
2013-01-15 05:53:00,44.0,13.0,-100.00,SSW,204,4.0,6.0,28,-99.99,,,0.00,-0.200000,,2013-01-15 13:53:00,
2013-01-15 06:00:00,44.0,12.0,-100.00,ESE,116,4.0,6.0,26,-99.99,,,0.00,-0.200000,,2013-01-15 14:00:00,
2013-01-15 06:53:00,44.0,12.0,-100.00,ESE,116,4.0,6.0,26,-99.99,,,0.00,-0.200000,,2013-01-15 14:53:00,
2013-01-15 07:00:00,45.0,9.0,-100.00,WSW,248,4.0,7.0,23,-99.99,,,0.00,-0.200000,,2013-01-15 15:00:00,
2013-01-15 07:53:00,45.0,9.0,-100.00,WSW,248,4.0,7.0,23,-99.99,,,0.00,-0.200000,,2013-01-15 15:53:00,
2013-01-15 09:00:00,46.0,7.0,-100.00,SSW,206,3.0,4.0,20,-99.99,,,0.00,39.299999,,2013-01-15 17:00:00,
2013-01-15 09:53:00,46.0,7.0,-100.00,SSW,206,3.0,4.0,20,-99.99,,,0.00,39.299999,,2013-01-15 17:53:00,
2013-01-15 10:00:00,49.0,7.0,-100.00,SSE,168,4.0,7.0,18,-99.99,,,0.00,116.699997,,2013-01-15 18:00:00,
2013-01-15 11:00:00,50.0,3.0,-100.00,SSE,168,4.0,8.0,14,-99.99,,,-99.99,232.300003,,2013-01-15 19:00:00,
2013-01-15 11:53:00,50.0,3.0,-100.00,SSE,168,4.0,8.0,14,-99.99,,,-99.99,232.300003,,2013-01-15 19:53:00,
2013-01-15 12:00:00,50.0,3.0,-100.00,SW,214,5.0,7.0,14,-99.99,,,0.00,331.700012,,2013-01-15 20:00:00,
2013-01-15 12:53:00,50.0,3.0,-100.00,SW,214,5.0,7.0,14,-99.99,,,0.00,331.700012,,2013-01-15 20:53:00,
2013-01-15 14:00:00,52.0,1.0,-100.00,South,181,3.0,5.0,12,-99.99,,,0.00,253.399994,,2013-01-15 22:00:00,
2013-01-15 14:53:00,52.0,1.0,-100.00,South,181,3.0,5.0,12,-99.99,,,0.00,253.399994,,2013-01-15 22:53:00,
2013-01-15 15:00:00,51.0,2.0,-100.00,SSE,153,4.0,6.0,13,-99.99,,,0.00,235.399994,,2013-01-15 23:00:00,
2013-01-15 15:53:00,51.0,2.0,-100.00,SSE,153,4.0,6.0,13,-99.99,,,0.00,235.399994,,2013-01-15 23:53:00,
2013-01-15 16:00:00,49.0,-3.0,-100.00,South,171,2.0,4.0,11,-99.99,,,-99.99,92.500000,,2013-01-16 00:00:00,
2013-01-15 16:53:00,49.0,-3.0,-100.00,South,171,2.0,4.0,11,-99.99,,,-99.99,92.500000,,2013-01-16 00:53:00,
2013-01-15 17:00:00,47.0,-3.0,-100.00,SSW,194,2.0,3.0,12,-99.99,,,0.00,7.300000,,2013-01-16 01:00:00,
2013-01-15 17:53:00,47.0,-3.0,-100.00,SSW,194,2.0,3.0,12,-99.99,,,0.00,7.300000,,2013-01-16 01:53:00,
2013-01-15 18:00:00,48.0,-99.9,-100.00,North,-999,-999.0,-999.0,-999,-99.99,,,0.00,,,2013-01-16 02:00:00,
2013-01-15 18:54:00,48.0,-99.9,-100.00,North,-999,-999.0,-999.0,-999,-99.99,,,0.00,,,2013-01-16 02:54:00,
2013-01-15 19:00:00,47.0,-5.0,-100.00,SW,217,1.0,3.0,11,-99.99,,,-99.99,-0.200000,,2013-01-16 03:00:00,
2013-01-15 19:53:00,47.0,-5.0,-100.00,SW,217,1.0,3.0,11,-99.99,,,-99.99,-0.200000,,2013-01-16 03:53:00,
2013-01-15 20:00:00,45.0,-4.0,-100.00,SSE,160,1.0,3.0,12,-99.99,,,0.00,-0.200000,,2013-01-16 04:00:00,
2013-01-15 20:52:00,45.0,-4.0,-100.00,SSE,160,1.0,3.0,12,-99.99,,,0.00,-0.200000,,2013-01-16 04:52:00,
2013-01-15 21:00:00,45.0,-4.0,-100.00,SSW,204,4.0,6.0,12,-99.99,,,-99.99,-0.200000,,2013-01-16 05:00:00,
2013-01-15 21:53:00,45.0,-4.0,-100.00,SSW,204,4.0,6.0,12,-99.99,,,-99.99,-0.200000,,2013-01-16 05:53:00,
2013-01-15 22:00:00,48.0,-4.0,-100.00,SW,216,4.0,7.0,11,-99.99,,,-99.99,-0.200000,,2013-01-16 06:00:00,
2013-01-15 22:53:00,48.0,-4.0,-100.00,SW,216,4.0,7.0,11,-99.99,,,-99.99,-0.200000,,2013-01-16 06:53:00,
2013-01-15 23:00:00,47.0,0.0,-100.00,ESE,116,3.0,7.0,14,-99.99,,,-99.99,-0.200000,,2013-01-16 07:00:00,
2013-01-15 23:52:00,47.0,0.0,-100.00,ESE,116,3.0,7.0,14,-99.99,,,-99.99,-0.200000,,2013-01-16 07:52:00,